createdAt,value
2019-03-19T00:00:39.081Z,2.5
2019-03-19T00:03:39.086Z,2.8
2019-03-19T00:06:39.081Z,2.8
2019-03-19T00:09:39.106Z,2.9
2019-03-19T00:12:39.277Z,2.9
2019-03-19T00:15:39.194Z,2.7
2019-03-19T00:18:39.061Z,2.5
2019-03-19T00:21:38.961Z,2.5
2019-03-19T00:24:39.418Z,2.4
2019-03-19T00:27:39.332Z,2.6
2019-03-19T00:30:39.141Z,2.5
2019-03-19T00:33:39.220Z,2.5
2019-03-19T00:36:38.996Z,2.7
2019-03-19T00:39:38.949Z,2.5
2019-03-19T00:42:39.148Z,2.4
2019-03-19T00:45:39.843Z,2.4
2019-03-19T00:48:39.419Z,2.5
2019-03-19T00:51:38.918Z,2.5
2019-03-19T00:54:39.268Z,2.5
2019-03-19T00:57:38.978Z,2.4
2019-03-19T01:00:39.087Z,2.4
2019-03-19T01:03:39.065Z,2.3
2019-03-19T01:06:39.102Z,2.5
2019-03-19T01:09:39.033Z,2.5
2019-03-19T01:12:39.000Z,2.4
2019-03-19T01:15:39.038Z,2.4
2019-03-19T01:18:39.128Z,2.4
2019-03-19T01:21:39.242Z,2.3
2019-03-19T01:24:39.240Z,2.3
2019-03-19T01:27:39.056Z,2.4
2019-03-19T01:30:39.146Z,2.4
2019-03-19T01:33:39.024Z,2.5
2019-03-19T01:36:39.034Z,2.4
2019-03-19T01:39:39.184Z,2.4
2019-03-19T01:42:39.413Z,2.3
2019-03-19T01:45:39.483Z,2.4
2019-03-19T01:48:39.041Z,2.4
2019-03-19T01:51:39.570Z,2.3
2019-03-19T01:54:39.220Z,2.3
2019-03-19T01:57:39.220Z,2.3
2019-03-19T02:00:38.890Z,2.3
2019-03-19T02:03:38.917Z,2.3
2019-03-19T02:06:38.997Z,2.3
2019-03-19T02:09:38.993Z,2.5
2019-03-19T02:12:39.561Z,2.3
2019-03-19T02:15:39.319Z,2.4
2019-03-19T02:18:38.979Z,2.4
2019-03-19T02:21:38.977Z,2.4
2019-03-19T02:24:39.072Z,2.4
2019-03-19T02:27:38.856Z,2.4
2019-03-19T02:30:39.213Z,2.7
2019-03-19T02:33:39.394Z,2.8
2019-03-19T02:36:39.003Z,2.6
2019-03-19T02:39:39.105Z,2.5
2019-03-19T02:42:39.229Z,2.3
2019-03-19T02:45:39.148Z,2.4
2019-03-19T02:48:40.265Z,2.3
2019-03-19T02:51:39.084Z,2.3
2019-03-19T02:54:39.038Z,2.4
2019-03-19T02:57:39.059Z,2.7
2019-03-19T03:00:39.286Z,2.6
2019-03-19T03:03:39.135Z,2.4
2019-03-19T03:06:39.226Z,2.3
2019-03-19T03:09:39.094Z,2.4
2019-03-19T03:12:38.934Z,2.4
2019-03-19T03:15:39.128Z,2.3
2019-03-19T03:18:39.517Z,2.4
2019-03-19T03:21:39.044Z,2.3
2019-03-19T03:24:39.150Z,2.3
2019-03-19T03:27:38.934Z,2.4
2019-03-19T03:30:39.184Z,2.3
2019-03-19T03:33:39.509Z,2.4
2019-03-19T03:36:39.051Z,2.4
2019-03-19T03:39:39.049Z,2.2
2019-03-19T03:42:39.067Z,2.3
2019-03-19T03:45:39.167Z,2.2
2019-03-19T03:48:38.951Z,2.3
2019-03-19T03:51:39.111Z,2.3
2019-03-19T03:54:39.267Z,2.3
2019-03-19T03:57:39.030Z,2.3
2019-03-19T04:00:39.377Z,2.1
2019-03-19T04:03:39.086Z,2.1
2019-03-19T04:06:38.972Z,2.1
2019-03-19T04:09:38.922Z,2.2
2019-03-19T04:12:39.003Z,2.1
2019-03-19T04:15:39.036Z,2.3
2019-03-19T04:18:39.144Z,2.4
2019-03-19T04:21:39.153Z,2.3
2019-03-19T04:24:39.036Z,2.3
2019-03-19T04:27:41.625Z,2.3
2019-03-19T04:30:39.094Z,2.2
2019-03-19T04:33:38.952Z,2.2
2019-03-19T04:36:39.074Z,2.2
2019-03-19T04:39:38.851Z,2.1
2019-03-19T04:42:38.963Z,2.2
2019-03-19T04:45:39.053Z,2.2
2019-03-19T04:48:38.938Z,2.2
2019-03-19T04:51:38.989Z,2.3
2019-03-19T04:54:39.069Z,2.3
2019-03-19T04:57:39.097Z,2.3
2019-03-19T05:00:38.885Z,2.2
2019-03-19T05:03:38.988Z,2.1
2019-03-19T05:06:39.089Z,2
2019-03-19T05:09:39.044Z,2.1
2019-03-19T05:12:38.955Z,2.1
2019-03-19T05:15:39.197Z,2.1
2019-03-19T05:18:38.960Z,2.3
2019-03-19T05:21:39.016Z,2.3
2019-03-19T05:24:38.997Z,2.3
2019-03-19T05:27:39.348Z,2.2
2019-03-19T05:30:39.072Z,2.1
2019-03-19T05:33:39.204Z,2.2
2019-03-19T05:36:38.871Z,2
2019-03-19T05:39:38.888Z,2.1
2019-03-19T05:42:38.921Z,2.1
2019-03-19T05:45:38.936Z,2.2
2019-03-19T05:48:39.038Z,2
2019-03-19T05:51:38.972Z,2
2019-03-19T05:54:38.896Z,2.1
2019-03-19T05:57:50.953Z,2.1
2019-03-19T06:00:38.994Z,2.1
2019-03-19T06:03:38.957Z,2
2019-03-19T06:06:39.069Z,2.1
2019-03-19T06:09:39.056Z,2.1
2019-03-19T06:12:38.862Z,2.1
2019-03-19T06:15:38.897Z,2.1
2019-03-19T06:18:38.971Z,2
2019-03-19T06:21:39.008Z,2.1
2019-03-19T06:24:38.990Z,2.1
2019-03-19T06:27:38.865Z,2
2019-03-19T06:30:38.886Z,2
2019-03-19T06:33:39.393Z,2
2019-03-19T06:36:38.984Z,2
2019-03-19T06:39:39.001Z,1.9
2019-03-19T06:42:39.177Z,2
2019-03-19T06:45:39.075Z,2.1
2019-03-19T06:48:38.812Z,2
2019-03-19T06:51:38.892Z,2
2019-03-19T06:54:38.978Z,2
2019-03-19T06:57:39.981Z,2
2019-03-19T07:00:39.004Z,2.2
2019-03-19T07:03:39.101Z,2.1
2019-03-19T07:06:38.907Z,2
2019-03-19T07:09:38.882Z,1.9
2019-03-19T07:12:38.938Z,1.9
2019-03-19T07:15:39.037Z,2
2019-03-19T07:18:39.041Z,1.9
2019-03-19T07:21:39.050Z,2
2019-03-19T07:24:38.821Z,2
2019-03-19T07:27:38.955Z,1.9
2019-03-19T07:30:41.290Z,2
2019-03-19T07:33:38.969Z,2
2019-03-19T07:36:39.010Z,2
2019-03-19T07:39:39.029Z,2
2019-03-19T07:42:38.873Z,2
2019-03-19T07:45:38.906Z,2
2019-03-19T07:48:39.108Z,2
2019-03-19T07:51:39.073Z,2
2019-03-19T07:54:39.059Z,1.9
2019-03-19T07:57:39.078Z,2
2019-03-19T08:00:38.789Z,2
2019-03-19T08:03:38.808Z,2
2019-03-19T08:06:39.121Z,2
2019-03-19T08:09:40.606Z,2
2019-03-19T08:12:38.950Z,2
2019-03-19T08:15:38.762Z,1.9
2019-03-19T08:18:38.817Z,2.5
2019-03-19T08:21:38.940Z,2.3
2019-03-19T08:24:38.947Z,2.3
2019-03-19T08:27:38.947Z,2.5
2019-03-19T08:30:38.986Z,2.2
2019-03-19T08:33:39.048Z,2.5
2019-03-19T08:36:38.865Z,2.7
2019-03-19T08:39:38.796Z,3.3
2019-03-19T08:42:39.211Z,3.4
2019-03-19T08:45:38.997Z,3.9
2019-03-19T08:48:38.964Z,3.4
2019-03-19T08:51:39.018Z,3.2
2019-03-19T08:54:38.975Z,3.3
2019-03-19T08:57:38.862Z,2.6
2019-03-19T09:00:38.987Z,2.3
2019-03-19T09:03:39.020Z,2.1
2019-03-19T09:06:38.982Z,2.3
2019-03-19T09:09:38.796Z,3.4
2019-03-19T09:12:38.854Z,2.9
2019-03-19T09:15:38.847Z,2.9
2019-03-19T09:18:39.041Z,2.7
2019-03-19T09:21:38.952Z,2.3
2019-03-19T09:24:39.039Z,2.4
2019-03-19T09:27:38.795Z,2.6
2019-03-19T09:30:38.803Z,2.1
2019-03-19T09:33:38.945Z,2.9
2019-03-19T09:36:38.939Z,2.4
2019-03-19T09:39:39.044Z,2.4
2019-03-19T09:42:39.050Z,2.8
2019-03-19T09:45:38.822Z,2.4
2019-03-19T09:48:38.768Z,2.4
2019-03-19T09:51:38.826Z,2.2
2019-03-19T09:54:38.892Z,2
2019-03-19T09:57:38.975Z,1.9
2019-03-19T10:00:38.770Z,2.7
2019-03-19T10:03:38.782Z,2.5
2019-03-19T10:06:39.142Z,2.1
2019-03-19T10:09:38.959Z,2
2019-03-19T10:12:39.053Z,1.9
2019-03-19T10:15:39.294Z,1.8
2019-03-19T10:18:38.688Z,1.9
2019-03-19T10:21:38.817Z,1.9
2019-03-19T10:24:38.827Z,1.9
2019-03-19T10:27:38.818Z,2
2019-03-19T10:30:38.910Z,1.8
2019-03-19T10:33:38.996Z,1.8
2019-03-19T10:36:38.887Z,1.8
2019-03-19T10:39:38.839Z,2.1
2019-03-19T10:42:38.951Z,2
2019-03-19T10:45:38.865Z,2
2019-03-19T10:48:38.927Z,1.8
2019-03-19T10:51:38.960Z,1.8
2019-03-19T10:54:38.659Z,1.8
2019-03-19T10:57:38.686Z,1.8
2019-03-19T11:00:38.722Z,1.8
2019-03-19T11:03:38.884Z,1.9
2019-03-19T11:06:38.914Z,1.7
2019-03-19T11:09:38.931Z,1.7
2019-03-19T11:12:38.773Z,1.7
2019-03-19T11:15:38.822Z,1.7
2019-03-19T11:18:38.835Z,1.8
2019-03-19T11:21:40.703Z,1.8
2019-03-19T11:24:38.899Z,1.7
2019-03-19T11:27:38.956Z,1.8
2019-03-19T11:30:38.691Z,1.9
2019-03-19T11:33:38.811Z,1.9
2019-03-19T11:36:38.812Z,1.8
2019-03-19T11:39:38.891Z,1.8
2019-03-19T11:42:38.995Z,1.9
2019-03-19T11:45:38.998Z,1.8
2019-03-19T11:48:38.713Z,1.7
2019-03-19T11:51:38.783Z,1.6
2019-03-19T11:54:38.786Z,1.6
2019-03-19T11:57:38.885Z,1.9
2019-03-19T12:00:39.259Z,1.8
2019-03-19T12:03:39.625Z,1.7
2019-03-19T12:06:38.706Z,1.9
2019-03-19T12:09:40.547Z,1.7
2019-03-19T12:12:38.851Z,1.7
2019-03-19T12:15:39.006Z,1.6
2019-03-19T12:18:38.936Z,1.7
2019-03-19T12:21:38.924Z,1.6
2019-03-19T12:24:38.779Z,1.5
2019-03-19T12:27:38.799Z,1.6
2019-03-19T12:30:38.818Z,1.5
2019-03-19T12:33:42.010Z,1.5
2019-03-19T12:36:38.844Z,1.4
2019-03-19T12:39:38.980Z,1.5
2019-03-19T12:42:38.691Z,1.6
2019-03-19T12:45:38.743Z,1.6
2019-03-19T12:48:38.735Z,1.6
2019-03-19T12:51:38.873Z,1.6
2019-03-19T12:54:38.991Z,1.6
2019-03-19T12:57:39.022Z,1.9
2019-03-19T13:00:38.843Z,1.8
2019-03-19T13:03:38.952Z,1.7
2019-03-19T13:06:38.926Z,1.6
2019-03-19T13:09:38.868Z,1.6
2019-03-19T13:12:38.794Z,1.6
2019-03-19T13:15:39.003Z,1.6
2019-03-19T13:18:38.840Z,1.6
2019-03-19T13:21:38.704Z,1.5
2019-03-19T13:24:38.841Z,1.5
2019-03-19T13:27:38.866Z,1.6
2019-03-19T13:30:45.784Z,1.5
2019-03-19T13:33:38.884Z,1.8
2019-03-19T13:36:38.836Z,1.6
2019-03-19T13:39:40.846Z,1.6
2019-03-19T13:42:38.820Z,1.6
2019-03-19T13:45:38.857Z,1.5
2019-03-19T13:48:38.916Z,1.5
2019-03-19T13:51:39.203Z,1.4
2019-03-19T13:54:38.645Z,1.5
2019-03-19T13:57:38.701Z,1.5
2019-03-19T14:00:38.694Z,1.4
2019-03-19T14:03:38.803Z,1.4
2019-03-19T14:06:39.022Z,1.4
2019-03-19T14:09:38.759Z,1.5
2019-03-19T14:12:38.833Z,1.4
2019-03-19T14:15:38.772Z,1.5
2019-03-19T14:18:38.805Z,1.4
2019-03-19T14:21:39.155Z,1.6
2019-03-19T14:24:39.117Z,1.6
2019-03-19T14:27:39.203Z,1.5
2019-03-19T14:30:38.938Z,1.7
2019-03-19T14:33:38.682Z,1.6
2019-03-19T14:36:38.684Z,1.6
2019-03-19T14:39:38.713Z,1.5
2019-03-19T14:42:38.782Z,1.5
2019-03-19T14:45:38.622Z,1.5
2019-03-19T14:48:38.912Z,1.9
2019-03-19T14:51:38.754Z,2.1
2019-03-19T14:54:38.806Z,1.7
2019-03-19T14:57:39.303Z,1.6
2019-03-19T15:00:38.725Z,1.5
2019-03-19T15:03:38.878Z,1.6
2019-03-19T15:06:38.967Z,1.9
2019-03-19T15:09:38.645Z,1.9
2019-03-19T15:12:38.891Z,1.8
2019-03-19T15:15:38.706Z,3.7
2019-03-19T15:18:39.098Z,3.2
2019-03-19T15:21:38.763Z,2.4
2019-03-19T15:24:38.827Z,2
2019-03-19T15:27:38.798Z,1.7
2019-03-19T15:30:38.713Z,1.6
2019-03-19T15:33:38.811Z,1.8
2019-03-19T15:36:38.793Z,1.9
2019-03-19T15:39:38.780Z,1.7
2019-03-19T15:42:38.867Z,2.4
2019-03-19T15:45:38.938Z,3.7
2019-03-19T15:48:38.756Z,5.4
2019-03-19T15:51:38.637Z,6.2
2019-03-19T15:54:38.613Z,6.1
2019-03-19T15:57:38.745Z,6.1
2019-03-19T16:00:38.947Z,5.8
2019-03-19T16:03:38.868Z,5.4
2019-03-19T16:06:38.636Z,5.7
2019-03-19T16:09:38.720Z,5.4
2019-03-19T16:12:38.770Z,5.7
2019-03-19T16:15:39.017Z,5
2019-03-19T16:18:38.902Z,5.7
2019-03-19T16:21:38.813Z,5.5
2019-03-19T16:24:39.756Z,5.6
2019-03-19T16:27:38.623Z,5.4
2019-03-19T16:30:38.806Z,5.1
2019-03-19T16:33:38.757Z,4.9
2019-03-19T16:36:38.844Z,5.4
2019-03-19T16:39:38.844Z,5.8
2019-03-19T16:42:39.011Z,5.6
2019-03-19T16:45:39.035Z,6.5
2019-03-19T16:48:38.614Z,5.7
2019-03-19T16:51:38.730Z,5.6
2019-03-19T16:54:38.802Z,6.6
2019-03-19T16:57:38.848Z,6.2
2019-03-19T17:00:38.680Z,6.2
2019-03-19T17:03:39.199Z,5.3
2019-03-19T17:06:38.628Z,4.7
2019-03-19T17:09:38.818Z,4.2
2019-03-19T17:12:38.695Z,3.9
2019-03-19T17:15:38.555Z,4.1
2019-03-19T17:18:38.868Z,3.8
2019-03-19T17:21:38.746Z,4.1
2019-03-19T17:24:38.673Z,3.8
2019-03-19T17:27:38.703Z,3.6
2019-03-19T17:30:38.692Z,3.5
2019-03-19T17:33:38.958Z,3.1
2019-03-19T17:36:38.783Z,2.6
2019-03-19T17:39:39.007Z,2.5
2019-03-19T17:42:38.713Z,2.5
2019-03-19T17:45:38.674Z,2.4
2019-03-19T17:48:38.654Z,3.2
2019-03-19T17:51:39.150Z,2.7
2019-03-19T17:54:38.792Z,2.5
2019-03-19T17:57:38.835Z,2.5
2019-03-19T18:00:38.619Z,2.1
2019-03-19T18:03:38.611Z,2.8
2019-03-19T18:06:38.665Z,2.6
2019-03-19T18:09:38.835Z,2.4
2019-03-19T18:12:38.901Z,3.2
2019-03-19T18:15:38.908Z,3.3
2019-03-19T18:18:38.576Z,2.8
2019-03-19T18:21:38.689Z,3
2019-03-19T18:24:38.616Z,2.9
2019-03-19T18:27:38.676Z,2.9
2019-03-19T18:30:38.945Z,3.4
2019-03-19T18:33:38.946Z,2.9
2019-03-19T18:41:55.174Z,1.8
2019-03-19T18:44:55.065Z,2.1
2019-03-19T18:47:55.243Z,1.9
2019-03-19T18:50:55.232Z,2.1
2019-03-19T18:53:55.272Z,1.9
2019-03-19T18:56:55.525Z,1.8
2019-03-19T18:59:55.209Z,2
2019-03-19T19:02:54.960Z,1.9
2019-03-19T19:05:55.051Z,1.9
2019-03-19T19:08:55.229Z,1.9
2019-03-19T19:11:55.232Z,2.1
2019-03-19T19:14:55.020Z,2.1
2019-03-19T19:17:55.329Z,1.8
2019-03-19T19:20:55.020Z,1.9
2019-03-19T19:23:55.151Z,1.8
2019-03-19T19:26:55.354Z,1.7
2019-03-19T19:29:55.147Z,2.2
2019-03-19T19:33:03.235Z,4.8
2019-03-19T19:35:55.044Z,3.5
2019-03-19T19:38:55.132Z,3.9
2019-03-19T19:41:55.028Z,3.7
2019-03-19T19:44:55.122Z,3
2019-03-19T19:47:55.183Z,3.6
2019-03-19T19:50:54.934Z,3
2019-03-19T19:53:55.096Z,2.9
2019-03-19T19:56:55.224Z,2.7
2019-03-19T19:59:55.225Z,2.9
2019-03-19T20:02:55.195Z,6.1
2019-03-19T20:05:55.172Z,4.9
2019-03-19T20:08:56.105Z,3.9
2019-03-19T20:11:56.280Z,3.2
2019-03-19T20:14:55.066Z,3
2019-03-19T20:17:55.248Z,3.3
2019-03-19T20:20:55.432Z,3.2
2019-03-19T20:23:55.674Z,3
2019-03-19T20:26:55.034Z,3.1
2019-03-19T20:29:55.069Z,3.5
2019-03-19T20:32:55.090Z,3.2
2019-03-19T20:35:56.259Z,3.6
2019-03-19T20:38:55.302Z,3.6
2019-03-19T20:41:55.170Z,4.2
2019-03-19T20:44:55.108Z,3.8
2019-03-19T20:47:55.205Z,3.3
2019-03-19T20:50:55.009Z,3.2
2019-03-19T20:53:55.179Z,2.9
2019-03-19T20:56:55.184Z,3.2
2019-03-19T20:59:55.042Z,4.4
2019-03-19T21:02:55.026Z,4.1
2019-03-19T21:05:54.904Z,3.2
2019-03-19T21:08:55.323Z,3.4
2019-03-19T21:11:55.382Z,3
2019-03-19T21:14:55.551Z,2.7
2019-03-19T21:17:55.279Z,3
2019-03-19T21:20:55.120Z,2.7
2019-03-19T21:23:55.026Z,3
2019-03-19T21:26:55.154Z,3.1
2019-03-19T21:29:56.078Z,3.2
2019-03-19T21:32:55.295Z,3.3
2019-03-19T21:35:54.942Z,3
2019-03-19T21:38:54.955Z,2.8
2019-03-19T21:41:54.993Z,2.7
2019-03-19T21:44:55.091Z,2.7
2019-03-19T21:47:55.159Z,3.2
2019-03-19T21:50:55.020Z,2.8
2019-03-19T21:53:55.510Z,2.6
2019-03-19T21:56:54.972Z,2.6
2019-03-19T21:59:54.960Z,2.8
2019-03-19T22:02:54.958Z,2.6
2019-03-19T22:05:55.205Z,2.7
2019-03-19T22:08:55.078Z,2.6
2019-03-19T22:11:55.279Z,2.5
2019-03-19T22:14:54.993Z,2.8
2019-03-19T22:17:55.014Z,2.8
2019-03-19T22:20:55.229Z,2.4
2019-03-19T22:23:55.130Z,2.1
2019-03-19T22:26:55.006Z,2.3
2019-03-19T22:29:55.161Z,2.2
2019-03-19T22:32:54.883Z,2.2
2019-03-19T22:35:54.964Z,2.3
2019-03-19T22:38:54.978Z,2.4
2019-03-19T22:41:55.029Z,2.2
2019-03-19T22:44:55.276Z,2.4
2019-03-19T22:47:55.294Z,2.1
2019-03-19T22:50:54.911Z,2.3
2019-03-19T22:53:55.073Z,2.6
2019-03-19T22:56:55.123Z,2.4
2019-03-19T22:59:55.108Z,2.2
2019-03-19T23:02:55.161Z,2.1
2019-03-19T23:05:55.110Z,2.2
2019-03-19T23:08:54.898Z,2.2
2019-03-19T23:11:55.037Z,2.4
2019-03-19T23:14:55.022Z,2.5
2019-03-19T23:17:55.015Z,2.2
2019-03-19T23:20:55.077Z,2.4
2019-03-19T23:23:55.408Z,2.3
2019-03-19T23:26:55.004Z,2.2
2019-03-19T23:29:54.997Z,2.2
2019-03-19T23:32:55.117Z,2.4
2019-03-19T23:35:55.065Z,2.4
2019-03-19T23:38:55.269Z,2.3
2019-03-19T23:41:55.162Z,2.2
2019-03-19T23:44:54.882Z,2.5
2019-03-19T23:47:54.976Z,2.3
2019-03-19T23:50:55.093Z,2.2
2019-03-19T23:53:55.109Z,2.4
2019-03-19T23:56:55.234Z,2.2
2019-03-19T23:59:54.959Z,2.2
